Hanston, Kansas
Current Conditions -  °F | °C
As of 5:52 AM on Thursday 23 Oct 2014 (Local Time) from KDDC Reporting Station
Haze Haze  
Wind Chill: 56°   Ceiling: 1600
Heat Index: 56°   Visibility: 2.5mi
Dew Point: 54°   Wind: 5mph
Humidity: 93%   Direction: 180°S
Pressure: 30.07"   Gusts: NA
Location:  38.12°N, 99.71°W
Report Text: KDDC 231052Z AUTO 18004KT 2 1/2SM BR BKN016 13/12 A3007 RMK AO2 SLP167 T01330122
Loading
Personal Weather Stations






























Interactive Weather Map
Tropical Storm Tracking
New forecast layout! Learn more

10-Day Weather Forecast

Advertisements
Track Severe Weather on mobile